createdAt,value
2017-09-25T00:02:18.173Z,14.77
2017-09-25T00:04:47.631Z,14.10
2017-09-25T00:07:17.065Z,15.60
2017-09-25T00:09:52.765Z,15.00
2017-09-25T00:12:22.192Z,14.63
2017-09-25T00:14:51.654Z,15.13
2017-09-25T00:17:21.801Z,15.03
2017-09-25T00:19:51.215Z,15.13
2017-09-25T00:22:20.654Z,13.83
2017-09-25T00:24:50.057Z,15.37
2017-09-25T00:27:22.497Z,15.40
2017-09-25T00:29:51.929Z,15.07
2017-09-25T00:32:21.405Z,14.93
2017-09-25T00:34:50.814Z,15.20
2017-09-25T00:37:20.307Z,14.53
2017-09-25T00:39:49.750Z,14.47
2017-09-25T00:42:33.846Z,15.37
2017-09-25T00:45:03.298Z,15.57
2017-09-25T00:47:32.771Z,14.37
2017-09-25T00:50:02.217Z,16.33
2017-09-25T00:52:43.705Z,16.40
2017-09-25T00:55:19.018Z,14.77
2017-09-25T00:57:49.065Z,15.80
2017-09-25T01:00:24.377Z,15.30
2017-09-25T01:03:07.361Z,15.60
2017-09-25T01:05:52.714Z,16.70
2017-09-25T01:08:22.231Z,17.83
2017-09-25T01:10:51.933Z,18.00
2017-09-25T01:13:22.153Z,17.73
2017-09-25T01:16:06.021Z,17.40
2017-09-25T01:18:35.497Z,17.30
2017-09-25T01:21:05.225Z,17.00
2017-09-25T01:23:34.697Z,16.50
2017-09-25T01:26:17.857Z,16.80
2017-09-25T01:28:47.992Z,19.00
2017-09-25T01:31:18.140Z,17.90
2017-09-25T01:33:47.574Z,18.50
2017-09-25T01:36:17.005Z,18.53
2017-09-25T01:38:46.426Z,18.10
2017-09-25T01:41:15.926Z,17.83
2017-09-25T01:43:45.368Z,18.87
2017-09-25T01:46:22.769Z,18.83
2017-09-25T01:48:52.222Z,18.10
2017-09-25T01:51:21.616Z,19.93
2017-09-25T01:53:51.578Z,18.33
2017-09-25T01:56:21.100Z,18.30
2017-09-25T01:58:50.757Z,18.03
2017-09-25T02:01:20.305Z,17.67
2017-09-25T02:03:49.878Z,18.83
2017-09-25T02:06:19.556Z,18.13
2017-09-25T02:08:49.785Z,19.50
2017-09-25T02:11:19.313Z,18.00
2017-09-25T02:13:50.605Z,18.37
2017-09-25T02:16:20.082Z,19.10
2017-09-25T02:18:49.568Z,18.80
2017-09-25T02:21:19.231Z,18.40
2017-09-25T02:23:49.849Z,19.30
2017-09-25T02:26:19.477Z,19.17
2017-09-25T02:28:49.406Z,18.87
2017-09-25T02:31:18.840Z,20.03
2017-09-25T02:33:48.259Z,19.30
2017-09-25T02:36:17.654Z,17.30
2017-09-25T02:38:47.105Z,19.30
2017-09-25T02:41:34.158Z,18.90
2017-09-25T02:44:13.112Z,19.37
2017-09-25T02:46:48.575Z,17.87
2017-09-25T02:49:18.034Z,17.83
2017-09-25T02:51:48.055Z,18.57
2017-09-25T02:54:17.490Z,18.77
2017-09-25T02:56:46.924Z,18.40
2017-09-25T02:59:16.334Z,19.13
2017-09-25T03:01:45.726Z,18.47
2017-09-25T03:04:15.262Z,18.53
2017-09-25T03:06:44.725Z,18.00
2017-09-25T03:09:14.184Z,18.33
2017-09-25T03:11:43.775Z,17.10
2017-09-25T03:14:13.259Z,18.73
2017-09-25T03:16:42.703Z,18.30
2017-09-25T03:19:12.090Z,16.37
2017-09-25T03:21:41.564Z,18.20
2017-09-25T03:24:11.013Z,20.80
2017-09-25T03:26:40.481Z,18.50
2017-09-25T03:29:09.893Z,20.30
2017-09-25T03:31:58.977Z,19.80
2017-09-25T03:34:28.422Z,17.80
2017-09-25T03:36:57.875Z,18.37
2017-09-25T03:39:28.126Z,18.13
2017-09-25T03:42:10.111Z,20.50
2017-09-25T03:44:39.558Z,19.80
2017-09-25T03:47:09.002Z,19.43
2017-09-25T03:49:38.482Z,19.27
2017-09-25T03:52:07.897Z,17.63
2017-09-25T03:54:37.317Z,19.67
2017-09-25T03:57:13.877Z,19.03
2017-09-25T03:59:43.337Z,24.33
2017-09-25T04:02:13.094Z,20.57
2017-09-25T04:04:42.544Z,19.97
2017-09-25T04:07:17.971Z,21.83
2017-09-25T04:09:47.456Z,21.50
2017-09-25T04:12:29.242Z,21.47
2017-09-25T04:14:58.681Z,20.70
2017-09-25T04:17:28.139Z,21.03
2017-09-25T04:19:57.566Z,21.93
2017-09-25T04:22:27.073Z,22.20
2017-09-25T04:24:59.473Z,25.57
2017-09-25T04:27:28.920Z,26.57
2017-09-25T04:29:58.326Z,24.23
2017-09-25T04:32:38.062Z,27.23
2017-09-25T04:35:13.689Z,26.30
2017-09-25T04:37:43.125Z,25.77
2017-09-25T04:40:14.295Z,23.97
2017-09-25T04:42:51.025Z,25.17
2017-09-25T04:45:20.622Z,23.80
2017-09-25T04:47:50.037Z,25.40
2017-09-25T04:50:19.429Z,26.10
2017-09-25T04:52:48.862Z,27.87
2017-09-25T04:55:18.489Z,26.63
2017-09-25T04:57:47.933Z,26.93
2017-09-25T05:00:17.365Z,25.43
2017-09-25T05:02:46.842Z,23.50
2017-09-25T05:05:22.724Z,24.20
2017-09-25T05:07:52.166Z,26.80
2017-09-25T05:10:21.617Z,25.90
2017-09-25T05:12:59.979Z,25.07
2017-09-25T05:15:29.549Z,27.10
2017-09-25T05:17:59.002Z,23.73
2017-09-25T05:20:28.453Z,22.80
2017-09-25T05:22:57.886Z,23.60
2017-09-25T05:25:27.327Z,27.03
2017-09-25T05:27:56.725Z,24.10
2017-09-25T05:30:26.147Z,22.47
2017-09-25T05:33:01.609Z,27.73
2017-09-25T05:35:31.039Z,24.43
2017-09-25T05:38:00.490Z,21.00
2017-09-25T05:40:29.916Z,23.73
2017-09-25T05:42:59.335Z,24.07
2017-09-25T05:45:28.862Z,22.90
2017-09-25T05:47:58.277Z,21.33
2017-09-25T05:50:27.805Z,24.93
2017-09-25T05:53:11.613Z,24.87
2017-09-25T05:55:46.449Z,24.53
2017-09-25T05:58:15.896Z,24.63
2017-09-25T06:00:45.337Z,21.77
2017-09-25T06:03:15.318Z,26.57
2017-09-25T06:05:44.905Z,25.33
2017-09-25T06:08:14.650Z,23.80
2017-09-25T06:10:44.095Z,25.10
2017-09-25T06:13:13.559Z,21.97
2017-09-25T06:15:42.994Z,26.77
2017-09-25T06:18:12.525Z,26.33
2017-09-25T06:20:41.947Z,24.97
2017-09-25T06:23:11.514Z,23.13
2017-09-25T06:25:41.271Z,22.63
2017-09-25T06:28:10.731Z,24.13
2017-09-25T06:30:40.175Z,24.63
2017-09-25T06:33:09.627Z,23.03
2017-09-25T06:35:39.346Z,27.03
2017-09-25T06:38:15.119Z,25.77
2017-09-25T06:40:44.574Z,24.40
2017-09-25T06:43:13.982Z,22.33
2017-09-25T06:45:43.454Z,21.07
2017-09-25T06:48:12.921Z,20.17
2017-09-25T06:50:42.338Z,20.83
2017-09-25T06:53:11.783Z,23.00
2017-09-25T06:55:41.199Z,28.67
2017-09-25T06:58:16.808Z,26.13
2017-09-25T07:00:46.235Z,31.30
2017-09-25T07:03:15.714Z,26.83
2017-09-25T07:05:52.832Z,23.80
2017-09-25T07:08:29.974Z,22.40
2017-09-25T07:10:59.397Z,17.50
2017-09-25T07:13:28.865Z,19.23
2017-09-25T07:15:58.585Z,23.30
2017-09-25T07:18:28.010Z,26.57
2017-09-25T07:20:57.481Z,22.70
2017-09-25T07:23:26.986Z,23.63
2017-09-25T07:25:56.422Z,26.07
2017-09-25T07:28:25.893Z,24.87
2017-09-25T07:30:55.376Z,26.80
2017-09-25T07:33:24.825Z,24.47
2017-09-25T07:35:54.262Z,27.30
2017-09-25T07:38:23.748Z,22.67
2017-09-25T07:40:53.275Z,20.17
2017-09-25T07:43:23.048Z,19.20
2017-09-25T07:45:58.486Z,19.70
2017-09-25T07:48:27.886Z,18.10
2017-09-25T07:50:57.409Z,17.53
2017-09-25T07:53:34.510Z,18.43
2017-09-25T07:56:03.954Z,16.90
2017-09-25T07:58:33.346Z,18.00
2017-09-25T08:01:10.312Z,17.30
2017-09-25T08:03:39.705Z,16.50
2017-09-25T08:06:22.260Z,16.90
2017-09-25T08:08:51.680Z,15.57
2017-09-25T08:11:34.364Z,15.00
2017-09-25T08:14:04.114Z,15.07
2017-09-25T08:16:33.539Z,15.70
2017-09-25T08:19:09.133Z,13.67
2017-09-25T08:21:38.622Z,13.20
2017-09-25T08:24:08.076Z,13.60
2017-09-25T08:26:38.751Z,13.10
2017-09-25T08:29:16.581Z,13.60
2017-09-25T08:31:46.735Z,12.60
2017-09-25T08:34:16.167Z,10.97
2017-09-25T08:36:45.626Z,12.03
2017-09-25T08:39:15.285Z,10.80
2017-09-25T08:41:46.269Z,11.70
2017-09-25T08:44:15.694Z,10.27
2017-09-25T08:46:45.101Z,9.63
2017-09-25T08:49:14.906Z,10.93
2017-09-25T08:51:44.815Z,9.97
2017-09-25T08:54:14.277Z,11.70
2017-09-25T08:56:43.702Z,10.77
2017-09-25T08:59:13.139Z,10.80
2017-09-25T09:01:42.814Z,9.83
2017-09-25T09:04:12.499Z,11.23
2017-09-25T09:06:42.080Z,11.20
2017-09-25T09:09:11.512Z,19.40
2017-09-25T09:11:40.929Z,17.67
2017-09-25T09:14:10.336Z,13.13
2017-09-25T09:16:39.775Z,13.27
2017-09-25T09:19:09.216Z,13.13
2017-09-25T09:21:38.949Z,11.13
2017-09-25T09:24:16.386Z,10.80
2017-09-25T09:26:45.833Z,9.60
2017-09-25T09:29:15.325Z,11.70
2017-09-25T09:31:45.274Z,9.83
2017-09-25T09:34:24.267Z,9.97
2017-09-25T09:36:53.661Z,10.17
2017-09-25T09:39:23.247Z,9.33
2017-09-25T09:41:52.881Z,9.60
2017-09-25T09:44:22.840Z,9.83
2017-09-25T09:46:53.990Z,9.63
2017-09-25T09:49:23.394Z,8.30
2017-09-25T09:51:52.837Z,9.77
2017-09-25T09:54:22.269Z,9.50
2017-09-25T09:56:51.686Z,8.03
2017-09-25T09:59:21.411Z,8.63
2017-09-25T10:01:50.797Z,9.53
2017-09-25T10:04:20.264Z,9.37
2017-09-25T10:06:56.798Z,9.27
2017-09-25T10:09:26.225Z,8.77
2017-09-25T10:11:55.677Z,8.17
2017-09-25T10:14:25.179Z,9.10
2017-09-25T10:16:54.752Z,11.73
2017-09-25T10:19:24.168Z,11.93
2017-09-25T10:22:06.613Z,12.70
2017-09-25T10:24:36.189Z,11.50
2017-09-25T10:27:05.840Z,12.23
2017-09-25T10:29:48.929Z,11.90
2017-09-25T10:32:33.414Z,11.47
2017-09-25T10:35:03.204Z,10.63
2017-09-25T10:37:32.669Z,10.87
2017-09-25T10:40:09.556Z,9.63
2017-09-25T10:42:39.218Z,9.50
2017-09-25T10:45:08.674Z,9.80
2017-09-25T10:47:38.114Z,9.60
2017-09-25T10:50:07.545Z,9.80
2017-09-25T10:52:38.137Z,10.00
2017-09-25T10:55:07.598Z,10.00
2017-09-25T10:57:37.039Z,9.53
2017-09-25T11:00:09.711Z,9.53
2017-09-25T11:02:46.226Z,9.53
2017-09-25T11:05:15.683Z,9.53
2017-09-25T11:07:57.405Z,8.90
2017-09-25T11:10:27.981Z,9.93
2017-09-25T11:12:57.814Z,9.40
2017-09-25T11:15:40.880Z,8.70
2017-09-25T11:18:10.471Z,8.80
2017-09-25T11:20:39.882Z,9.90
2017-09-25T11:23:09.345Z,8.80
2017-09-25T11:25:39.033Z,10.20
2017-09-25T11:28:08.991Z,9.20
2017-09-25T11:30:52.104Z,9.30
2017-09-25T11:33:21.508Z,8.90
2017-09-25T11:35:50.956Z,8.50
2017-09-25T11:38:20.557Z,8.70
2017-09-25T11:40:49.959Z,9.23
2017-09-25T11:43:19.457Z,9.00
2017-09-25T11:45:49.773Z,9.30
2017-09-25T11:48:19.238Z,8.43
2017-09-25T11:50:49.324Z,9.40
2017-09-25T11:53:18.764Z,8.33
2017-09-25T11:55:48.328Z,8.77
2017-09-25T11:58:17.774Z,8.90
2017-09-25T12:00:49.824Z,9.03
2017-09-25T12:03:19.214Z,9.80
2017-09-25T12:05:48.791Z,10.77
2017-09-25T12:08:32.006Z,10.10
2017-09-25T12:11:01.450Z,9.97
2017-09-25T12:13:30.870Z,8.97
2017-09-25T12:16:00.265Z,10.30
2017-09-25T12:18:30.490Z,8.50
2017-09-25T12:21:12.150Z,9.23
2017-09-25T12:23:41.574Z,8.60
2017-09-25T12:26:20.968Z,8.20
2017-09-25T12:28:50.372Z,8.83
2017-09-25T12:31:19.824Z,8.70
2017-09-25T12:33:49.295Z,9.90
2017-09-25T12:36:31.693Z,9.40
2017-09-25T12:39:07.747Z,9.07
2017-09-25T12:41:37.779Z,8.83
2017-09-25T12:44:07.457Z,8.63
2017-09-25T12:46:37.085Z,8.50
2017-09-25T12:49:06.521Z,9.87
2017-09-25T12:51:35.926Z,8.50
2017-09-25T12:54:05.603Z,8.83
2017-09-25T12:56:48.116Z,9.37
2017-09-25T12:59:17.883Z,8.57
2017-09-25T13:01:47.326Z,8.80
2017-09-25T13:04:16.985Z,9.40
2017-09-25T13:06:46.696Z,9.33
2017-09-25T13:09:23.549Z,9.50
2017-09-25T13:11:53.080Z,9.00
2017-09-25T13:14:22.787Z,8.67
2017-09-25T13:16:52.274Z,9.43
2017-09-25T13:19:22.434Z,9.53
2017-09-25T13:22:04.867Z,8.80
2017-09-25T13:24:34.318Z,9.37
2017-09-25T13:27:03.987Z,9.17
2017-09-25T13:29:33.463Z,9.93
2017-09-25T13:32:16.222Z,9.77
2017-09-25T13:34:46.883Z,9.43
2017-09-25T13:37:16.795Z,9.03
2017-09-25T13:39:46.470Z,9.00
2017-09-25T13:42:15.998Z,8.90
2017-09-25T13:44:45.390Z,8.50
2017-09-25T13:47:14.833Z,8.88
2017-09-25T13:49:44.233Z,8.70
2017-09-25T13:52:13.649Z,8.95
2017-09-25T13:54:57.122Z,8.68
2017-09-25T13:57:28.061Z,9.02
2017-09-25T14:02:32.022Z,8.70
2017-09-25T14:05:09.345Z,8.48
2017-09-25T14:07:38.838Z,8.30
2017-09-25T14:10:08.336Z,7.90
2017-09-25T14:12:38.312Z,7.80
2017-09-25T14:15:08.071Z,7.40
2017-09-25T14:17:43.564Z,7.25
2017-09-25T14:20:13.431Z,6.72
2017-09-25T14:22:48.998Z,7.22
2017-09-25T14:25:18.561Z,7.45
2017-09-25T14:27:47.998Z,7.47
2017-09-25T14:30:32.627Z,7.75
2017-09-25T14:33:02.058Z,8.85
2017-09-25T14:35:31.697Z,9.23
2017-09-25T14:38:01.131Z,8.15
2017-09-25T14:40:30.537Z,8.90
2017-09-25T14:43:07.921Z,9.10
2017-09-25T14:45:37.349Z,9.15
2017-09-25T14:48:08.089Z,10.52
2017-09-25T14:50:37.931Z,9.32
2017-09-25T14:53:07.537Z,10.87
2017-09-25T14:55:50.191Z,10.40
2017-09-25T14:58:19.630Z,10.13
2017-09-25T15:00:49.873Z,11.40
2017-09-25T15:03:19.892Z,11.70
2017-09-25T15:05:49.687Z,11.13
2017-09-25T15:08:26.343Z,12.20
2017-09-25T15:11:09.691Z,12.83
2017-09-25T15:13:39.129Z,13.60
2017-09-25T15:16:08.791Z,13.67
2017-09-25T15:18:38.238Z,12.37
2017-09-25T15:21:07.633Z,12.90
2017-09-25T15:23:46.220Z,13.57
2017-09-25T15:26:15.681Z,12.40
2017-09-25T15:28:45.294Z,10.90
2017-09-25T15:31:15.250Z,11.30
2017-09-25T15:33:44.857Z,10.97
2017-09-25T15:36:14.433Z,10.15
2017-09-25T15:38:56.716Z,10.40
2017-09-25T15:41:26.185Z,11.25
2017-09-25T15:43:55.834Z,11.25
2017-09-25T15:46:25.295Z,11.10
2017-09-25T15:49:07.900Z,11.88
2017-09-25T15:51:37.327Z,10.60
2017-09-25T15:54:06.910Z,10.98
2017-09-25T15:56:43.475Z,10.23
2017-09-25T15:59:15.353Z,10.63
2017-09-25T16:01:59.957Z,10.30
2017-09-25T16:04:29.374Z,11.10
2017-09-25T16:06:58.835Z,9.73
2017-09-25T16:09:28.289Z,10.70
2017-09-25T16:12:04.102Z,10.77
2017-09-25T16:14:39.799Z,10.17
2017-09-25T16:17:10.139Z,12.03
2017-09-25T16:19:39.822Z,11.40
2017-09-25T16:22:09.422Z,11.90
2017-09-25T16:24:39.097Z,13.97
2017-09-25T16:27:08.518Z,11.40
2017-09-25T16:29:37.962Z,10.60
2017-09-25T16:32:07.455Z,10.60
2017-09-25T16:34:39.882Z,11.60
2017-09-25T16:37:09.533Z,10.80
2017-09-25T16:39:41.100Z,13.40
2017-09-25T16:42:10.963Z,12.77
2017-09-25T16:44:40.383Z,11.90
2017-09-25T16:47:09.877Z,11.97
2017-09-25T16:49:47.225Z,11.90
2017-09-25T16:52:16.646Z,12.13
2017-09-25T16:54:46.192Z,11.90
2017-09-25T16:57:15.592Z,11.83
2017-09-25T16:59:45.028Z,12.40
2017-09-25T17:02:15.011Z,11.43
2017-09-25T17:04:51.317Z,12.73
2017-09-25T17:07:20.798Z,12.17
2017-09-25T17:09:50.273Z,11.87
2017-09-25T17:12:19.940Z,12.23
2017-09-25T17:14:49.486Z,13.67
2017-09-25T17:17:18.936Z,13.53
2017-09-25T17:19:48.380Z,13.50
2017-09-25T17:22:25.452Z,13.70
2017-09-25T17:25:02.900Z,14.37
2017-09-25T17:27:32.565Z,13.07
2017-09-25T17:30:02.022Z,14.13
2017-09-25T17:32:31.464Z,13.67
2017-09-25T17:35:07.747Z,14.90
2017-09-25T17:37:37.226Z,14.10
2017-09-25T17:40:06.649Z,13.40
2017-09-25T17:42:43.331Z,12.90
2017-09-25T17:45:12.993Z,13.23
2017-09-25T17:47:55.957Z,13.77
2017-09-25T17:50:25.586Z,14.30
2017-09-25T17:52:55.161Z,13.00
2017-09-25T17:55:24.905Z,12.63
2017-09-25T17:57:54.358Z,13.43
2017-09-25T18:00:24.017Z,12.17
2017-09-25T18:02:53.714Z,11.73
2017-09-25T18:05:23.373Z,11.07
2017-09-25T18:07:53.230Z,12.00
2017-09-25T18:10:37.573Z,11.67
2017-09-25T18:13:19.612Z,10.87
2017-09-25T18:15:49.078Z,10.00
2017-09-25T18:18:18.571Z,10.83
2017-09-25T18:20:50.126Z,10.53
2017-09-25T18:23:19.698Z,11.40
2017-09-25T18:25:57.116Z,9.63
2017-09-25T18:28:26.607Z,9.13
2017-09-25T18:30:56.105Z,11.53
2017-09-25T18:33:25.609Z,12.70
2017-09-25T18:35:55.241Z,11.40
2017-09-25T18:38:24.904Z,12.40
2017-09-25T18:41:01.377Z,12.00
2017-09-25T18:43:30.852Z,11.57
2017-09-25T18:46:00.278Z,12.67
2017-09-25T18:48:30.342Z,13.40
2017-09-25T18:50:59.776Z,13.07
2017-09-25T18:53:36.306Z,12.93
2017-09-25T18:56:14.280Z,11.80
2017-09-25T18:58:44.559Z,10.33
2017-09-25T19:01:14.282Z,10.40
2017-09-25T19:03:57.311Z,11.53
2017-09-25T19:06:27.316Z,9.07
2017-09-25T19:09:05.294Z,10.17
2017-09-25T19:11:34.713Z,8.37
2017-09-25T19:14:04.297Z,8.90
2017-09-25T19:16:33.714Z,7.90
2017-09-25T19:19:03.172Z,7.93
2017-09-25T19:21:40.640Z,7.17
2017-09-25T19:24:17.140Z,7.43
2017-09-25T19:26:46.565Z,7.37
2017-09-25T19:29:16.018Z,6.80
2017-09-25T19:31:45.596Z,6.70
2017-09-25T19:34:15.051Z,7.93
2017-09-25T19:36:57.454Z,6.93
2017-09-25T19:39:26.886Z,7.10
2017-09-25T19:41:58.651Z,7.00
2017-09-25T19:44:28.536Z,7.60
2017-09-25T19:46:58.744Z,6.73
2017-09-25T19:49:29.231Z,6.77
2017-09-25T19:51:58.927Z,7.77
2017-09-25T19:54:43.343Z,6.20
2017-09-25T19:57:17.004Z,6.77
2017-09-25T19:59:46.546Z,5.23
2017-09-25T20:02:16.014Z,5.60
2017-09-25T20:04:45.645Z,5.60
2017-09-25T20:07:22.998Z,5.33
2017-09-25T20:09:58.508Z,4.90
2017-09-25T20:12:28.430Z,4.93
2017-09-25T20:15:00.610Z,4.67
2017-09-25T20:17:40.904Z,5.37
2017-09-25T20:20:10.673Z,4.70
2017-09-25T20:22:40.305Z,4.73
2017-09-25T20:25:22.126Z,4.50
2017-09-25T20:27:51.709Z,4.90
2017-09-25T20:30:21.290Z,5.07
2017-09-25T20:32:50.729Z,5.20
2017-09-25T20:35:34.425Z,5.30
2017-09-25T20:38:04.304Z,5.50
2017-09-25T20:40:48.583Z,5.17
2017-09-25T20:43:33.331Z,5.20
2017-09-25T20:46:03.041Z,5.40
2017-09-25T20:48:32.561Z,5.50
2017-09-25T20:51:01.978Z,5.80
2017-09-25T20:53:39.142Z,5.40
2017-09-25T20:56:09.889Z,5.70
2017-09-25T20:58:39.361Z,6.07
2017-09-25T21:01:09.007Z,5.77
2017-09-25T21:03:46.306Z,6.50
2017-09-25T21:06:15.836Z,6.63
2017-09-25T21:08:45.260Z,6.13
2017-09-25T21:11:14.666Z,6.23
2017-09-25T21:13:44.256Z,6.00
2017-09-25T21:16:14.110Z,6.20
2017-09-25T21:18:45.452Z,5.97
2017-09-25T21:21:15.344Z,5.40
2017-09-25T21:23:45.011Z,5.20
2017-09-25T21:26:29.508Z,6.00
2017-09-25T21:28:59.919Z,5.80
2017-09-25T21:31:29.352Z,5.60
2017-09-25T21:33:59.018Z,5.23
2017-09-25T21:36:28.656Z,5.40
2017-09-25T21:38:58.064Z,5.30
2017-09-25T21:41:34.396Z,5.17
2017-09-25T21:44:03.843Z,5.77
2017-09-25T21:46:33.263Z,4.97
2017-09-25T21:49:10.477Z,4.80
2017-09-25T21:51:39.917Z,5.20
2017-09-25T21:54:09.359Z,5.60
2017-09-25T21:56:38.779Z,5.30
2017-09-25T21:59:08.174Z,5.20
2017-09-25T22:01:37.678Z,5.57
2017-09-25T22:04:08.421Z,5.10
2017-09-25T22:06:38.078Z,4.83
2017-09-25T22:09:15.397Z,5.53
2017-09-25T22:11:45.710Z,5.27
2017-09-25T22:14:15.671Z,5.80
2017-09-25T22:16:51.137Z,5.10
2017-09-25T22:19:21.082Z,5.20
2017-09-25T22:21:50.506Z,5.53
2017-09-25T22:24:34.027Z,5.67
2017-09-25T22:27:03.459Z,5.50
2017-09-25T22:29:33.016Z,5.80
2017-09-25T22:32:02.460Z,5.60
2017-09-25T22:34:31.924Z,5.37
2017-09-25T22:37:01.321Z,5.30
2017-09-25T22:39:38.733Z,5.27
2017-09-25T22:42:08.226Z,4.87
2017-09-25T22:44:39.463Z,5.07
2017-09-25T22:47:08.874Z,4.80
2017-09-25T22:49:38.404Z,4.40
2017-09-25T22:52:21.039Z,4.77
2017-09-25T22:54:50.898Z,4.97
2017-09-25T22:57:20.382Z,5.23
2017-09-25T22:59:50.002Z,4.70
2017-09-25T23:02:19.458Z,4.90
2017-09-25T23:04:55.530Z,4.80
2017-09-25T23:07:24.994Z,3.60
2017-09-25T23:10:02.029Z,4.33
2017-09-25T23:12:31.802Z,3.30
2017-09-25T23:15:01.224Z,3.10
2017-09-25T23:17:37.844Z,3.80
2017-09-25T23:20:19.489Z,3.40
2017-09-25T23:22:49.409Z,3.40
2017-09-25T23:25:22.779Z,3.30
2017-09-25T23:27:52.435Z,3.27
2017-09-25T23:30:24.642Z,3.23
2017-09-25T23:32:54.120Z,3.23
2017-09-25T23:35:23.537Z,3.00
2017-09-25T23:37:52.986Z,2.83
2017-09-25T23:40:22.421Z,3.10
2017-09-25T23:42:51.834Z,2.90
2017-09-25T23:45:21.398Z,3.20
2017-09-25T23:47:50.832Z,3.90
2017-09-25T23:50:27.350Z,3.40
2017-09-25T23:52:56.780Z,3.63
2017-09-25T23:55:33.413Z,2.80
2017-09-25T23:58:02.839Z,3.60
